createdAt,value
2018-09-24T00:00:00.459Z,99.90
2018-09-24T00:02:29.625Z,99.90
2018-09-24T00:04:58.838Z,99.90
2018-09-24T00:07:28.025Z,99.90
2018-09-24T00:09:57.248Z,99.90
2018-09-24T00:12:26.449Z,99.90
2018-09-24T00:14:55.672Z,99.90
2018-09-24T00:17:24.873Z,99.90
2018-09-24T00:19:54.133Z,99.90
2018-09-24T00:22:23.684Z,99.90
2018-09-24T00:24:52.892Z,99.90
2018-09-24T00:27:22.325Z,99.90
2018-09-24T00:29:51.534Z,99.90
2018-09-24T00:32:21.023Z,99.90
2018-09-24T00:34:50.241Z,99.90
2018-09-24T00:37:19.535Z,99.90
2018-09-24T00:39:48.763Z,99.90
2018-09-24T00:42:18.015Z,99.90
2018-09-24T00:44:47.238Z,99.90
2018-09-24T00:47:16.673Z,99.90
2018-09-24T00:49:45.892Z,99.90
2018-09-24T00:52:15.117Z,99.90
2018-09-24T00:54:44.317Z,99.90
2018-09-24T00:57:13.841Z,99.90
2018-09-24T00:59:43.045Z,99.90
2018-09-24T01:02:12.217Z,99.90
2018-09-24T01:04:41.428Z,99.90
2018-09-24T01:07:10.606Z,99.90
2018-09-24T01:09:39.854Z,99.90
2018-09-24T01:12:09.062Z,99.90
2018-09-24T01:14:38.329Z,99.90
2018-09-24T01:17:07.526Z,99.90
2018-09-24T01:19:36.767Z,99.90
2018-09-24T01:22:05.952Z,99.90
2018-09-24T01:24:35.149Z,99.90
2018-09-24T01:27:04.329Z,99.90
2018-09-24T01:29:33.520Z,99.90
2018-09-24T01:32:02.728Z,99.90
2018-09-24T01:34:31.919Z,99.90
2018-09-24T01:37:01.105Z,99.90
2018-09-24T01:39:30.308Z,99.90
2018-09-24T01:41:59.557Z,99.90
2018-09-24T01:44:28.753Z,99.90
2018-09-24T01:46:57.973Z,99.90
2018-09-24T01:49:27.171Z,99.90
2018-09-24T01:52:03.026Z,99.90
2018-09-24T01:54:32.216Z,99.90
2018-09-24T01:57:01.464Z,99.90
2018-09-24T01:59:30.665Z,99.90
2018-09-24T02:01:59.877Z,99.90
2018-09-24T02:04:29.075Z,99.90
2018-09-24T02:07:02.321Z,99.90
2018-09-24T02:09:32.125Z,99.90
2018-09-24T02:12:06.631Z,99.90
2018-09-24T02:14:36.361Z,99.90
2018-09-24T02:17:05.584Z,99.90
2018-09-24T02:19:34.915Z,99.90
2018-09-24T02:22:04.086Z,99.90
2018-09-24T02:24:33.333Z,99.90
2018-09-24T02:27:07.333Z,99.90
2018-09-24T02:29:37.148Z,99.90
2018-09-24T02:32:06.330Z,99.90
2018-09-24T02:34:35.777Z,99.90
2018-09-24T02:37:04.965Z,99.90
2018-09-24T02:39:34.215Z,99.90
2018-09-24T02:42:03.388Z,99.90
2018-09-24T02:44:32.629Z,99.90
2018-09-24T02:47:01.788Z,99.90
2018-09-24T02:49:31.010Z,99.90
2018-09-24T02:52:04.337Z,99.90
2018-09-24T02:54:35.183Z,99.90
2018-09-24T02:57:05.631Z,99.90
2018-09-24T02:59:34.868Z,99.90
2018-09-24T03:02:04.049Z,99.90
2018-09-24T03:04:33.261Z,99.90
2018-09-24T03:07:02.471Z,99.90
2018-09-24T03:09:31.896Z,99.90
2018-09-24T03:12:01.072Z,99.90
2018-09-24T03:14:30.280Z,99.90
2018-09-24T03:16:59.471Z,99.90
2018-09-24T03:19:28.661Z,99.90
2018-09-24T03:21:57.976Z,99.90
2018-09-24T03:24:27.168Z,99.90
2018-09-24T03:26:56.336Z,99.90
2018-09-24T03:29:26.708Z,99.90
2018-09-24T03:31:55.924Z,99.90
2018-09-24T03:34:25.281Z,99.90
2018-09-24T03:36:54.451Z,99.90
2018-09-24T03:39:23.682Z,99.90
2018-09-24T03:41:52.910Z,99.90
2018-09-24T03:44:22.138Z,99.90
2018-09-24T03:46:51.324Z,99.90
2018-09-24T03:49:20.504Z,99.90
2018-09-24T03:51:49.710Z,99.90
2018-09-24T03:54:18.879Z,99.90
2018-09-24T03:56:48.073Z,99.90
2018-09-24T03:59:17.257Z,99.90
2018-09-24T04:01:46.486Z,99.90
2018-09-24T04:04:21.022Z,99.90
2018-09-24T04:06:55.529Z,99.90
2018-09-24T04:09:29.881Z,99.90
2018-09-24T04:12:04.500Z,99.90
2018-09-24T04:14:39.106Z,99.90
2018-09-24T04:17:13.609Z,99.90
2018-09-24T04:19:48.155Z,99.90
2018-09-24T04:22:22.878Z,99.90
2018-09-24T04:24:57.393Z,99.90
2018-09-24T04:27:32.000Z,99.90
2018-09-24T04:30:06.437Z,99.90
2018-09-24T04:32:40.951Z,99.90
2018-09-24T04:35:15.619Z,99.90
2018-09-24T04:37:50.069Z,99.90
2018-09-24T04:40:24.549Z,99.90
2018-09-24T04:42:59.113Z,99.90
2018-09-24T04:45:33.708Z,99.90
2018-09-24T04:48:08.104Z,99.90
2018-09-24T04:50:42.711Z,99.90
2018-09-24T04:53:17.235Z,99.90
2018-09-24T04:55:51.966Z,99.90
2018-09-24T04:58:26.393Z,99.90
2018-09-24T05:01:00.981Z,99.90
2018-09-24T05:03:35.520Z,99.90
2018-09-24T05:06:10.000Z,99.90
2018-09-24T05:08:44.452Z,99.90
2018-09-24T05:11:18.989Z,99.90
2018-09-24T05:13:53.437Z,99.90
2018-09-24T05:16:28.063Z,99.90
2018-09-24T05:19:02.567Z,99.90
2018-09-24T05:21:37.053Z,99.90
2018-09-24T05:24:11.648Z,99.90
2018-09-24T05:26:46.130Z,99.90
2018-09-24T05:29:21.682Z,99.90
2018-09-24T05:31:56.868Z,99.90
2018-09-24T05:34:38.244Z,99.90
2018-09-24T05:37:12.642Z,99.90
2018-09-24T05:39:47.166Z,99.90
2018-09-24T05:42:21.582Z,99.90
2018-09-24T05:44:56.177Z,99.90
2018-09-24T05:47:30.740Z,99.90
2018-09-24T05:50:05.289Z,99.90
2018-09-24T05:52:39.805Z,99.90
2018-09-24T05:55:14.288Z,99.90
2018-09-24T05:57:48.766Z,99.90
2018-09-24T06:00:23.173Z,99.90
2018-09-24T06:02:57.725Z,99.90
2018-09-24T06:05:32.189Z,99.90
2018-09-24T06:08:06.829Z,99.90
2018-09-24T06:10:41.446Z,99.90
2018-09-24T06:13:15.873Z,99.90
2018-09-24T06:15:50.325Z,99.90
2018-09-24T06:18:24.772Z,99.90
2018-09-24T06:20:59.160Z,99.90
2018-09-24T06:23:33.601Z,99.90
2018-09-24T06:26:07.937Z,99.90
2018-09-24T06:28:42.331Z,99.90
2018-09-24T06:31:16.926Z,99.90
2018-09-24T06:33:51.437Z,99.90
2018-09-24T06:36:25.841Z,99.90
2018-09-24T06:39:00.228Z,99.90
2018-09-24T06:41:34.635Z,99.90
2018-09-24T06:44:09.033Z,99.90
2018-09-24T06:46:43.461Z,99.90
2018-09-24T06:49:18.000Z,99.90
2018-09-24T06:51:52.620Z,99.90
2018-09-24T06:54:27.157Z,99.90
2018-09-24T06:57:01.702Z,99.90
2018-09-24T06:59:36.280Z,99.90
2018-09-24T07:02:10.837Z,99.90
2018-09-24T07:04:45.430Z,99.90
2018-09-24T07:07:19.884Z,99.90
2018-09-24T07:09:54.456Z,99.90
2018-09-24T07:12:29.050Z,99.90
2018-09-24T07:15:03.650Z,99.90
2018-09-24T07:17:38.153Z,99.90
2018-09-24T07:20:12.774Z,99.90
2018-09-24T07:22:47.177Z,99.90
2018-09-24T07:25:21.657Z,99.90
2018-09-24T07:27:56.251Z,99.90
2018-09-24T07:30:30.756Z,99.90
2018-09-24T07:33:05.142Z,99.90
2018-09-24T07:35:39.716Z,99.90
2018-09-24T07:38:14.167Z,99.90
2018-09-24T07:40:48.750Z,99.90
2018-09-24T07:43:23.268Z,99.90
2018-09-24T07:45:57.797Z,99.90
2018-09-24T07:48:32.324Z,99.90
2018-09-24T07:51:06.914Z,99.90
2018-09-24T07:53:41.346Z,99.90
2018-09-24T07:56:15.914Z,99.90
2018-09-24T07:58:50.401Z,99.90
2018-09-24T08:01:25.001Z,99.90
2018-09-24T08:03:59.304Z,99.90
2018-09-24T08:06:33.953Z,99.90
2018-09-24T08:09:08.517Z,99.90
2018-09-24T08:11:43.018Z,99.90
2018-09-24T08:14:17.657Z,99.90
2018-09-24T08:16:52.180Z,99.90
2018-09-24T08:19:26.720Z,99.90
2018-09-24T08:22:01.327Z,99.90
2018-09-24T08:24:35.953Z,99.90
2018-09-24T08:27:10.526Z,99.90
2018-09-24T08:29:45.093Z,99.70
2018-09-24T08:32:19.505Z,99.20
2018-09-24T08:34:54.139Z,98.90
2018-09-24T08:37:28.612Z,98.40
2018-09-24T08:40:03.198Z,98.30
2018-09-24T08:42:37.794Z,98.50
2018-09-24T08:45:12.368Z,98.40
2018-09-24T08:47:46.920Z,97.50
2018-09-24T08:50:21.336Z,98.00
2018-09-24T08:52:55.950Z,97.80
2018-09-24T08:55:30.533Z,97.90
2018-09-24T08:58:05.171Z,97.50
2018-09-24T09:00:39.765Z,97.50
2018-09-24T09:03:14.162Z,97.10
2018-09-24T09:05:48.801Z,97.30
2018-09-24T09:08:23.378Z,97.10
2018-09-24T09:10:57.888Z,95.70
2018-09-24T09:13:32.533Z,96.60
2018-09-24T09:16:07.104Z,95.60
2018-09-24T09:18:41.649Z,95.60
2018-09-24T09:21:16.141Z,94.90
2018-09-24T09:23:50.684Z,94.70
2018-09-24T09:26:25.292Z,94.40
2018-09-24T09:28:59.716Z,94.60
2018-09-24T09:31:34.268Z,95.50
2018-09-24T09:34:08.733Z,96.80
2018-09-24T09:36:43.249Z,96.80
2018-09-24T09:39:17.689Z,96.60
2018-09-24T09:41:52.305Z,95.70
2018-09-24T09:44:26.776Z,95.70
2018-09-24T09:47:01.365Z,94.60
2018-09-24T09:49:35.819Z,94.00
2018-09-24T09:52:10.269Z,93.10
2018-09-24T09:54:44.957Z,92.90
2018-09-24T09:57:19.544Z,92.60
2018-09-24T09:59:54.037Z,92.30
2018-09-24T10:02:28.476Z,92.20
2018-09-24T10:05:03.018Z,92.00
2018-09-24T10:07:37.474Z,91.50
2018-09-24T10:10:12.311Z,91.70
2018-09-24T10:12:46.833Z,92.00
2018-09-24T10:15:21.449Z,93.60
2018-09-24T10:17:56.045Z,95.70
2018-09-24T10:20:30.544Z,96.80
2018-09-24T10:23:04.953Z,95.80
2018-09-24T10:25:39.595Z,97.90
2018-09-24T10:28:14.222Z,98.90
2018-09-24T10:30:48.760Z,99.30
2018-09-24T10:33:23.155Z,99.70
2018-09-24T10:35:57.665Z,99.90
2018-09-24T10:38:32.184Z,99.30
2018-09-24T10:41:06.812Z,98.60
2018-09-24T10:43:41.355Z,98.60
2018-09-24T10:46:15.869Z,99.10
2018-09-24T10:48:50.482Z,99.90
2018-09-24T10:51:25.098Z,99.20
2018-09-24T10:53:59.440Z,98.70
2018-09-24T10:56:34.004Z,97.90
2018-09-24T10:59:08.405Z,96.40
2018-09-24T11:01:43.773Z,95.90
2018-09-24T11:04:18.620Z,94.40
2018-09-24T11:06:53.268Z,93.10
2018-09-24T11:09:27.800Z,94.00
2018-09-24T11:12:02.406Z,93.80
2018-09-24T11:14:36.841Z,94.20
2018-09-24T11:17:11.445Z,95.60
2018-09-24T11:19:46.024Z,96.30
2018-09-24T11:22:20.570Z,96.80
2018-09-24T11:24:55.145Z,96.90
2018-09-24T11:27:29.553Z,97.30
2018-09-24T11:30:04.024Z,97.50
2018-09-24T11:32:38.553Z,97.30
2018-09-24T11:35:13.018Z,97.40
2018-09-24T11:37:47.553Z,97.00
2018-09-24T11:40:22.067Z,97.40
2018-09-24T11:42:56.719Z,98.00
2018-09-24T11:45:31.355Z,96.40
2018-09-24T11:48:05.944Z,96.00
2018-09-24T11:50:40.363Z,93.80
2018-09-24T11:53:15.728Z,94.30
2018-09-24T11:55:50.296Z,92.60
2018-09-24T11:58:24.728Z,93.10
2018-09-24T12:00:59.385Z,89.60
2018-09-24T12:03:33.886Z,89.00
2018-09-24T12:06:08.505Z,87.20
2018-09-24T12:08:43.057Z,86.00
2018-09-24T12:11:17.665Z,87.70
2018-09-24T12:13:52.132Z,87.80
2018-09-24T12:16:26.716Z,87.80
2018-09-24T12:19:01.378Z,91.40
2018-09-24T12:21:35.954Z,93.10
2018-09-24T12:24:10.437Z,94.00
2018-09-24T12:26:45.004Z,94.90
2018-09-24T12:29:19.435Z,94.40
2018-09-24T12:31:53.964Z,95.30
2018-09-24T12:34:28.535Z,96.00
2018-09-24T12:37:03.077Z,95.30
2018-09-24T12:39:37.524Z,95.10
2018-09-24T12:42:12.126Z,94.70
2018-09-24T12:44:46.642Z,93.70
2018-09-24T12:47:21.161Z,92.80
2018-09-24T12:49:55.633Z,92.70
2018-09-24T12:52:30.231Z,93.00
2018-09-24T12:55:04.981Z,90.90
2018-09-24T12:57:39.626Z,90.30
2018-09-24T13:00:14.090Z,88.20
2018-09-24T13:02:48.669Z,87.50
2018-09-24T13:05:23.265Z,89.20
2018-09-24T13:07:57.852Z,91.50
2018-09-24T13:10:32.415Z,92.70
2018-09-24T13:13:06.888Z,93.20
2018-09-24T13:15:41.530Z,93.50
2018-09-24T13:18:16.080Z,94.40
2018-09-24T13:20:50.608Z,94.40
2018-09-24T13:23:25.197Z,95.10
2018-09-24T13:25:59.850Z,95.40
2018-09-24T13:28:34.491Z,93.90
2018-09-24T13:31:08.882Z,94.80
2018-09-24T13:33:43.528Z,96.40
2018-09-24T13:36:18.148Z,95.90
2018-09-24T13:38:52.748Z,96.80
2018-09-24T13:41:27.233Z,96.10
2018-09-24T13:44:01.789Z,96.80
2018-09-24T13:46:37.165Z,94.30
2018-09-24T13:49:31.852Z,96.10
2018-09-24T13:52:06.369Z,95.80
2018-09-24T13:54:40.818Z,95.00
2018-09-24T13:57:15.389Z,94.40
2018-09-24T13:59:49.897Z,94.70
2018-09-24T14:02:24.453Z,94.90
2018-09-24T14:04:59.002Z,94.90
2018-09-24T14:07:33.568Z,94.80
2018-09-24T14:10:07.977Z,91.90
2018-09-24T14:12:42.430Z,92.10
2018-09-24T14:15:16.836Z,91.20
2018-09-24T14:17:51.380Z,90.80
2018-09-24T14:20:25.816Z,90.10
2018-09-24T14:23:00.413Z,89.50
2018-09-24T14:25:34.822Z,90.50
2018-09-24T14:28:09.348Z,89.10
2018-09-24T14:30:43.869Z,90.00
2018-09-24T14:33:18.649Z,89.10
2018-09-24T14:35:53.281Z,89.70
2018-09-24T14:38:27.844Z,88.50
2018-09-24T14:41:02.321Z,89.00
2018-09-24T14:43:36.901Z,87.50
2018-09-24T14:46:11.534Z,88.10
2018-09-24T14:48:46.053Z,87.90
2018-09-24T14:51:20.485Z,86.80
2018-09-24T14:53:55.031Z,88.30
2018-09-24T14:56:29.613Z,89.00
2018-09-24T14:59:04.238Z,90.90
2018-09-24T15:01:38.776Z,91.30
2018-09-24T15:04:13.374Z,91.50
2018-09-24T15:06:47.796Z,91.80
2018-09-24T15:09:22.379Z,92.10
2018-09-24T15:11:56.881Z,92.50
2018-09-24T15:14:31.565Z,93.00
2018-09-24T15:17:05.986Z,92.80
2018-09-24T15:19:40.614Z,93.10
2018-09-24T15:22:15.240Z,93.30
2018-09-24T15:24:49.841Z,94.40
2018-09-24T15:27:24.372Z,95.90
2018-09-24T15:29:58.935Z,97.50
2018-09-24T15:32:33.444Z,98.50
2018-09-24T15:35:07.944Z,99.20
2018-09-24T15:37:42.589Z,99.90
2018-09-24T15:40:17.224Z,99.90
2018-09-24T15:42:51.830Z,99.90
2018-09-24T15:45:26.750Z,99.90
2018-09-24T15:48:01.237Z,99.90
2018-09-24T15:50:35.663Z,99.90
2018-09-24T15:53:10.106Z,99.90
2018-09-24T15:55:44.578Z,99.90
2018-09-24T15:58:19.141Z,99.90
2018-09-24T16:00:53.562Z,99.90
2018-09-24T16:03:28.200Z,99.90
2018-09-24T16:06:02.846Z,99.90
2018-09-24T16:08:37.428Z,99.90
2018-09-24T16:11:11.965Z,99.90
2018-09-24T16:13:46.391Z,99.90
2018-09-24T16:16:20.896Z,99.90
2018-09-24T16:18:55.301Z,99.90
2018-09-24T16:21:29.857Z,99.90
2018-09-24T16:24:04.582Z,99.90
2018-09-24T16:26:39.132Z,99.90
2018-09-24T16:29:13.718Z,99.90
2018-09-24T16:31:48.145Z,99.90
2018-09-24T16:34:22.708Z,99.90
2018-09-24T16:36:57.329Z,99.90
2018-09-24T16:39:31.821Z,99.90
2018-09-24T16:42:06.347Z,99.90
2018-09-24T16:44:40.972Z,99.90
2018-09-24T16:47:15.591Z,99.90
2018-09-24T16:49:50.151Z,99.90
2018-09-24T16:52:24.713Z,99.90
2018-09-24T16:54:59.255Z,99.90
2018-09-24T16:57:33.850Z,99.90
2018-09-24T17:00:08.392Z,99.90
2018-09-24T17:02:43.053Z,99.90
2018-09-24T17:05:17.453Z,99.90
2018-09-24T17:07:51.876Z,99.90
2018-09-24T17:10:26.497Z,99.90
2018-09-24T17:13:01.049Z,99.90
2018-09-24T17:15:35.532Z,99.90
2018-09-24T17:18:09.898Z,99.90
2018-09-24T17:20:44.440Z,99.90
2018-09-24T17:23:19.105Z,99.90
2018-09-24T17:25:53.663Z,99.90
2018-09-24T17:28:28.165Z,99.90
2018-09-24T17:31:02.654Z,99.90
2018-09-24T17:33:37.221Z,99.90
2018-09-24T17:36:11.621Z,99.90
2018-09-24T17:38:46.176Z,99.90
2018-09-24T17:41:20.632Z,99.90
2018-09-24T17:43:55.188Z,99.90
2018-09-24T17:46:29.742Z,99.90
2018-09-24T17:49:04.224Z,99.90
2018-09-24T17:51:38.844Z,99.90
2018-09-24T17:54:13.385Z,99.90
2018-09-24T17:56:47.912Z,99.90
2018-09-24T17:59:22.433Z,99.90
2018-09-24T18:01:56.936Z,99.90
2018-09-24T18:04:31.474Z,99.90
2018-09-24T18:07:05.863Z,99.90
2018-09-24T18:09:40.537Z,99.90
2018-09-24T18:12:15.128Z,99.90
2018-09-24T18:14:49.557Z,99.90
2018-09-24T18:17:23.957Z,99.90
2018-09-24T18:19:58.479Z,99.90
2018-09-24T18:22:32.889Z,99.90
2018-09-24T18:25:07.414Z,99.90
2018-09-24T18:27:41.821Z,99.90
2018-09-24T18:30:16.291Z,99.90
2018-09-24T18:32:50.806Z,99.90
2018-09-24T18:35:25.354Z,99.90
2018-09-24T18:37:59.756Z,99.90
2018-09-24T18:40:34.239Z,99.90
2018-09-24T18:43:08.740Z,99.90
2018-09-24T18:45:43.335Z,99.90
2018-09-24T18:48:18.021Z,99.90
2018-09-24T18:50:52.547Z,99.90
2018-09-24T18:53:27.053Z,99.90
2018-09-24T18:56:01.467Z,99.90
2018-09-24T18:58:36.155Z,99.90
2018-09-24T19:01:10.761Z,99.90
2018-09-24T19:03:45.440Z,99.90
2018-09-24T19:06:19.909Z,99.90
2018-09-24T19:08:54.349Z,99.90
2018-09-24T19:11:28.993Z,99.90
2018-09-24T19:14:03.529Z,99.90
2018-09-24T19:16:38.174Z,99.90
2018-09-24T19:19:12.686Z,99.90
2018-09-24T19:21:47.395Z,99.90
2018-09-24T19:24:21.943Z,99.90
2018-09-24T19:26:56.413Z,99.90
2018-09-24T19:29:30.990Z,99.90
2018-09-24T19:32:05.436Z,99.90
2018-09-24T19:34:40.109Z,99.90
2018-09-24T19:37:14.748Z,99.90
2018-09-24T19:39:49.270Z,99.90
2018-09-24T19:42:23.646Z,99.90
2018-09-24T19:44:58.046Z,99.90
2018-09-24T19:47:32.661Z,99.90
2018-09-24T19:50:07.268Z,99.90
2018-09-24T19:52:41.805Z,99.90
2018-09-24T19:55:16.192Z,99.90
2018-09-24T19:57:50.843Z,99.90
2018-09-24T20:00:25.365Z,99.90
2018-09-24T20:02:59.803Z,99.90
2018-09-24T20:05:34.329Z,99.90
2018-09-24T20:08:08.993Z,99.90
2018-09-24T20:10:43.548Z,99.90
2018-09-24T20:13:18.064Z,99.90
2018-09-24T20:15:52.551Z,99.90
2018-09-24T20:18:27.057Z,99.90
2018-09-24T20:21:01.629Z,99.90
2018-09-24T20:23:36.102Z,99.90
2018-09-24T20:26:10.597Z,99.90
2018-09-24T20:28:45.098Z,99.90
2018-09-24T20:31:19.736Z,99.90
2018-09-24T20:33:54.267Z,99.90
2018-09-24T20:36:28.720Z,99.90
2018-09-24T20:39:03.164Z,99.90
2018-09-24T20:41:37.688Z,99.90
2018-09-24T20:44:12.133Z,99.90
2018-09-24T20:46:46.670Z,99.90
2018-09-24T20:49:21.162Z,99.90
2018-09-24T20:51:55.792Z,99.90
2018-09-24T20:54:30.453Z,99.90
2018-09-24T20:57:05.005Z,99.90
2018-09-24T20:59:39.490Z,99.90
2018-09-24T21:02:13.946Z,99.90
2018-09-24T21:04:48.560Z,99.90
2018-09-24T21:07:23.116Z,99.90
2018-09-24T21:09:57.585Z,99.90
2018-09-24T21:12:32.132Z,99.90
2018-09-24T21:15:06.580Z,99.90
2018-09-24T21:17:41.150Z,99.90
2018-09-24T21:20:15.611Z,99.90
2018-09-24T21:22:50.163Z,99.90
2018-09-24T21:25:24.809Z,99.90
2018-09-24T21:27:59.276Z,99.90
2018-09-24T21:30:34.340Z,99.90
2018-09-24T21:33:08.956Z,99.90
2018-09-24T21:35:43.465Z,99.90
2018-09-24T21:38:18.018Z,99.90
2018-09-24T21:40:52.449Z,99.90
2018-09-24T21:43:26.957Z,99.90
2018-09-24T21:46:01.578Z,99.90
2018-09-24T21:48:35.989Z,99.90
2018-09-24T21:51:10.613Z,99.90
2018-09-24T21:53:45.145Z,99.90
2018-09-24T21:56:19.787Z,99.90
2018-09-24T21:58:54.329Z,99.90
2018-09-24T22:01:28.925Z,99.90
2018-09-24T22:04:03.409Z,99.90
2018-09-24T22:06:38.061Z,99.90
2018-09-24T22:09:14.373Z,99.90
2018-09-24T22:11:48.939Z,99.90
2018-09-24T22:14:30.392Z,99.90
2018-09-24T22:17:04.937Z,99.90
2018-09-24T22:19:39.372Z,99.90
2018-09-24T22:22:13.757Z,99.90
2018-09-24T22:24:48.237Z,99.90
2018-09-24T22:27:22.826Z,99.90
2018-09-24T22:29:57.271Z,99.90
2018-09-24T22:32:31.859Z,99.90
2018-09-24T22:35:06.306Z,99.90
2018-09-24T22:37:40.837Z,99.90
2018-09-24T22:40:15.449Z,99.90
2018-09-24T22:42:49.897Z,99.90
2018-09-24T22:45:24.516Z,99.90
2018-09-24T22:47:59.101Z,99.90
2018-09-24T22:50:33.533Z,99.90
2018-09-24T22:53:08.107Z,99.90
2018-09-24T22:55:42.646Z,99.90
2018-09-24T22:58:17.105Z,99.90
2018-09-24T23:00:51.509Z,99.90
2018-09-24T23:03:26.051Z,99.90
2018-09-24T23:06:00.556Z,99.90
2018-09-24T23:08:35.173Z,99.90
2018-09-24T23:11:09.801Z,99.90
2018-09-24T23:13:44.249Z,99.90
2018-09-24T23:16:18.726Z,99.90
2018-09-24T23:18:53.302Z,99.90
2018-09-24T23:21:27.885Z,99.90
2018-09-24T23:24:02.322Z,99.90
2018-09-24T23:26:36.937Z,99.90
2018-09-24T23:29:11.473Z,99.90
2018-09-24T23:31:46.105Z,99.90
2018-09-24T23:34:20.610Z,99.90
2018-09-24T23:36:55.093Z,99.90
2018-09-24T23:39:29.587Z,99.90
2018-09-24T23:42:04.057Z,99.90
2018-09-24T23:44:38.545Z,99.90
2018-09-24T23:47:13.113Z,99.90
2018-09-24T23:49:47.798Z,99.90
2018-09-24T23:52:22.364Z,99.90
2018-09-24T23:54:56.853Z,99.90
2018-09-24T23:57:31.458Z,99.90
